Wetmore, Texas
Current Conditions -  °F | °C
As of 4:51 AM on Monday 20 Oct 2014 (Local Time) from KSAT Reporting Station
Overcast Overcast  
Wind Chill: 69°   Ceiling: 6000
Heat Index: 69°   Visibility: 10mi
Dew Point: 65°   Wind: 7mph
Humidity: 87%   Direction: 100°E
Pressure: 30.02"   Gusts: NA
Location:  29.5903°N, 98.4049°W
Report Text: KSAT 200951Z 10006KT 10SM SCT011 BKN060 OVC220 21/18 A3002 RMK AO2 SLP147 T02060183
Loading
Personal Weather Stations






























Interactive Weather Map
Tropical Storm Tracking
New forecast layout! Learn more

10-Day Weather Forecast

Advertisements
Track Severe Weather on mobile